sensor_id;sensor_type;location;lat;lon;timestamp;pressure;altitude;pressure_sealevel;temperature;humidity
80335;BME280;69653;52.674;13.574;2023-08-21T00:00:09;101390.34;;;20.25;81.24
80335;BME280;69653;52.674;13.574;2023-08-21T00:02:35;101390.34;;;20.25;80.88
80335;BME280;69653;52.674;13.574;2023-08-21T00:05:00;101380.97;;;20.18;81.30
80335;BME280;69653;52.674;13.574;2023-08-21T00:07:25;101389.41;;;20.21;81.44
80335;BME280;69653;52.674;13.574;2023-08-21T00:09:51;101375.66;;;20.13;81.43
80335;BME280;69653;52.674;13.574;2023-08-21T00:12:16;101373.44;;;20.06;81.64
80335;BME280;69653;52.674;13.574;2023-08-21T00:14:42;101380.50;;;20.04;82.10
80335;BME280;69653;52.674;13.574;2023-08-21T00:17:07;101379.44;;;19.96;82.19
80335;BME280;69653;52.674;13.574;2023-08-21T00:19:34;101385.69;;;19.93;82.27
80335;BME280;69653;52.674;13.574;2023-08-21T00:22:00;101378.38;;;19.89;82.49
80335;BME280;69653;52.674;13.574;2023-08-21T00:24:25;101381.16;;;19.89;82.53
80335;BME280;69653;52.674;13.574;2023-08-21T00:26:51;101378.00;;;19.78;82.77
80335;BME280;69653;52.674;13.574;2023-08-21T00:29:16;101376.63;;;19.72;83.18
80335;BME280;69653;52.674;13.574;2023-08-21T00:31:41;101382.75;;;19.77;82.84
80335;BME280;69653;52.674;13.574;2023-08-21T00:34:07;101375.72;;;19.80;83.14
80335;BME280;69653;52.674;13.574;2023-08-21T00:36:32;101366.66;;;19.71;82.71
80335;BME280;69653;52.674;13.574;2023-08-21T00:38:57;101365.72;;;19.67;82.96
80335;BME280;69653;52.674;13.574;2023-08-21T00:41:23;101379.25;;;19.68;83.14
80335;BME280;69653;52.674;13.574;2023-08-21T00:43:49;101385.00;;;19.63;83.27
80335;BME280;69653;52.674;13.574;2023-08-21T00:46:15;101375.81;;;19.51;83.79
80335;BME280;69653;52.674;13.574;2023-08-21T00:48:41;101380.22;;;19.52;84.14
80335;BME280;69653;52.674;13.574;2023-08-21T00:51:06;101365.66;;;19.43;84.06
80335;BME280;69653;52.674;13.574;2023-08-21T00:53:33;101383.69;;;19.49;84.22
80335;BME280;69653;52.674;13.574;2023-08-21T00:55:58;101383.19;;;19.47;84.42
80335;BME280;69653;52.674;13.574;2023-08-21T00:58:23;101381.13;;;19.44;84.65
80335;BME280;69653;52.674;13.574;2023-08-21T01:00:49;101378.88;;;19.37;84.45
80335;BME280;69653;52.674;13.574;2023-08-21T01:03:17;101373.31;;;19.37;84.76
80335;BME280;69653;52.674;13.574;2023-08-21T01:05:43;101379.56;;;19.34;84.93
80335;BME280;69653;52.674;13.574;2023-08-21T01:08:16;101373.53;;;19.32;84.96
80335;BME280;69653;52.674;13.574;2023-08-21T01:10:50;101374.34;;;19.32;85.01
80335;BME280;69653;52.674;13.574;2023-08-21T01:13:23;101366.75;;;19.21;85.21
80335;BME280;69653;52.674;13.574;2023-08-21T01:15:51;101384.97;;;19.30;85.54
80335;BME280;69653;52.674;13.574;2023-08-21T01:18:18;101377.78;;;19.29;85.64
80335;BME280;69653;52.674;13.574;2023-08-21T01:20:44;101369.72;;;19.36;85.37
80335;BME280;69653;52.674;13.574;2023-08-21T01:23:09;101372.19;;;19.38;85.26
80335;BME280;69653;52.674;13.574;2023-08-21T01:25:34;101370.09;;;19.35;85.58
80335;BME280;69653;52.674;13.574;2023-08-21T01:28:00;101362.09;;;19.33;85.96
80335;BME280;69653;52.674;13.574;2023-08-21T01:30:28;101372.50;;;19.36;85.58
80335;BME280;69653;52.674;13.574;2023-08-21T01:33:06;101377.38;;;19.39;85.70
80335;BME280;69653;52.674;13.574;2023-08-21T01:35:36;101366.28;;;19.39;85.91
80335;BME280;69653;52.674;13.574;2023-08-21T01:38:02;101365.66;;;19.43;85.80
80335;BME280;69653;52.674;13.574;2023-08-21T01:40:28;101362.22;;;19.37;85.64
80335;BME280;69653;52.674;13.574;2023-08-21T01:42:54;101366.28;;;19.39;85.73
80335;BME280;69653;52.674;13.574;2023-08-21T01:45:20;101358.31;;;19.38;85.63
80335;BME280;69653;52.674;13.574;2023-08-21T01:47:45;101357.50;;;19.37;85.57
80335;BME280;69653;52.674;13.574;2023-08-21T01:50:10;101362.34;;;19.41;85.49
80335;BME280;69653;52.674;13.574;2023-08-21T01:52:36;101359.13;;;19.38;85.41
80335;BME280;69653;52.674;13.574;2023-08-21T01:55:01;101355.34;;;19.43;85.54
80335;BME280;69653;52.674;13.574;2023-08-21T01:57:26;101360.34;;;19.50;84.96
80335;BME280;69653;52.674;13.574;2023-08-21T01:59:51;101366.84;;;19.54;85.18
80335;BME280;69653;52.674;13.574;2023-08-21T02:02:17;101361.53;;;19.61;84.76
80335;BME280;69653;52.674;13.574;2023-08-21T02:04:42;101367.22;;;19.64;84.87
80335;BME280;69653;52.674;13.574;2023-08-21T02:07:09;101352.19;;;19.65;84.73
80335;BME280;69653;52.674;13.574;2023-08-21T02:09:34;101336.09;;;19.59;84.52
80335;BME280;69653;52.674;13.574;2023-08-21T02:11:59;101340.41;;;19.68;84.66
80335;BME280;69653;52.674;13.574;2023-08-21T02:14:24;101343.31;;;19.72;84.40
80335;BME280;69653;52.674;13.574;2023-08-21T02:16:50;101338.47;;;19.81;84.05
80335;BME280;69653;52.674;13.574;2023-08-21T02:19:15;101342.25;;;19.76;83.85
80335;BME280;69653;52.674;13.574;2023-08-21T02:21:40;101337.66;;;19.80;84.05
80335;BME280;69653;52.674;13.574;2023-08-21T02:24:06;101347.97;;;19.80;84.08
80335;BME280;69653;52.674;13.574;2023-08-21T02:26:31;101348.41;;;19.82;84.12
80335;BME280;69653;52.674;13.574;2023-08-21T02:28:56;101346.22;;;19.75;84.29
80335;BME280;69653;52.674;13.574;2023-08-21T02:31:22;101348.63;;;19.77;84.22
80335;BME280;69653;52.674;13.574;2023-08-21T02:33:48;101353.50;;;19.80;84.01
80335;BME280;69653;52.674;13.574;2023-08-21T02:36:15;101344.69;;;19.78;83.96
80335;BME280;69653;52.674;13.574;2023-08-21T02:38:40;101347.72;;;19.85;83.62
80335;BME280;69653;52.674;13.574;2023-08-21T02:41:05;101342.66;;;19.87;83.41
80335;BME280;69653;52.674;13.574;2023-08-21T02:43:31;101344.75;;;19.90;83.30
80335;BME280;69653;52.674;13.574;2023-08-21T02:45:56;101344.75;;;19.90;83.26
80335;BME280;69653;52.674;13.574;2023-08-21T02:48:21;101336.50;;;19.81;83.31
80335;BME280;69653;52.674;13.574;2023-08-21T02:50:46;101341.47;;;19.76;83.66
80335;BME280;69653;52.674;13.574;2023-08-21T02:53:12;101347.22;;;19.71;83.96
80335;BME280;69653;52.674;13.574;2023-08-21T02:55:37;101357.63;;;19.74;84.02
80335;BME280;69653;52.674;13.574;2023-08-21T02:58:02;101356.50;;;19.75;83.97
80335;BME280;69653;52.674;13.574;2023-08-21T03:00:28;101359.72;;;19.77;83.79
80335;BME280;69653;52.674;13.574;2023-08-21T03:02:53;101357.06;;;19.80;83.77
80335;BME280;69653;52.674;13.574;2023-08-21T03:05:19;101361.72;;;19.89;83.22
80335;BME280;69653;52.674;13.574;2023-08-21T03:07:44;101353.41;;;19.89;83.43
80335;BME280;69653;52.674;13.574;2023-08-21T03:10:09;101359.06;;;19.92;83.25
80335;BME280;69653;52.674;13.574;2023-08-21T03:12:34;101344.28;;;20.00;82.72
80335;BME280;69653;52.674;13.574;2023-08-21T03:15:00;101351.69;;;20.08;82.32
80335;BME280;69653;52.674;13.574;2023-08-21T03:17:25;101354.59;;;20.12;82.27
80335;BME280;69653;52.674;13.574;2023-08-21T03:19:51;101347.78;;;20.09;82.08
80335;BME280;69653;52.674;13.574;2023-08-21T03:22:16;101342.22;;;20.09;82.13
80335;BME280;69653;52.674;13.574;2023-08-21T03:24:41;101349.25;;;20.07;81.88
80335;BME280;69653;52.674;13.574;2023-08-21T03:27:07;101339.53;;;20.01;82.31
80335;BME280;69653;52.674;13.574;2023-08-21T03:29:32;101341.50;;;20.00;82.40
80335;BME280;69653;52.674;13.574;2023-08-21T03:31:57;101344.75;;;20.02;82.26
80335;BME280;69653;52.674;13.574;2023-08-21T03:34:23;101347.28;;;20.07;81.97
80335;BME280;69653;52.674;13.574;2023-08-21T03:36:48;101328.44;;;20.01;82.71
80335;BME280;69653;52.674;13.574;2023-08-21T03:39:13;101341.63;;;20.04;82.61
80335;BME280;69653;52.674;13.574;2023-08-21T03:41:38;101343.94;;;20.02;82.68
80335;BME280;69653;52.674;13.574;2023-08-21T03:44:04;101334.31;;;19.99;82.34
80335;BME280;69653;52.674;13.574;2023-08-21T03:46:29;101347.66;;;20.06;82.35
80335;BME280;69653;52.674;13.574;2023-08-21T03:48:54;101344.06;;;20.05;82.08
80335;BME280;69653;52.674;13.574;2023-08-21T03:51:20;101344.50;;;20.07;82.28
80335;BME280;69653;52.674;13.574;2023-08-21T03:53:45;101352.16;;;20.10;82.31
80335;BME280;69653;52.674;13.574;2023-08-21T03:56:11;101343.28;;;20.17;81.87
80335;BME280;69653;52.674;13.574;2023-08-21T03:58:36;101354.50;;;20.20;81.72
80335;BME280;69653;52.674;13.574;2023-08-21T04:01:01;101360.72;;;20.17;81.96
80335;BME280;69653;52.674;13.574;2023-08-21T04:03:27;101355.41;;;20.12;82.10
80335;BME280;69653;52.674;13.574;2023-08-21T04:05:55;101362.81;;;20.08;82.33
80335;BME280;69653;52.674;13.574;2023-08-21T04:08:22;101363.84;;;20.04;82.61
80335;BME280;69653;52.674;13.574;2023-08-21T04:10:47;101360.13;;;20.00;82.76
80335;BME280;69653;52.674;13.574;2023-08-21T04:13:12;101366.97;;;20.02;82.53
80335;BME280;69653;52.674;13.574;2023-08-21T04:15:37;101366.50;;;20.00;82.62
80335;BME280;69653;52.674;13.574;2023-08-21T04:18:03;101375.75;;;20.04;82.47
80335;BME280;69653;52.674;13.574;2023-08-21T04:20:29;101367.31;;;20.01;82.57
80335;BME280;69653;52.674;13.574;2023-08-21T04:22:54;101373.91;;;20.08;82.28
80335;BME280;69653;52.674;13.574;2023-08-21T04:25:20;101373.94;;;20.20;82.14
80335;BME280;69653;52.674;13.574;2023-08-21T04:27:45;101377.97;;;20.23;81.72
80335;BME280;69653;52.674;13.574;2023-08-21T04:30:11;101376.09;;;20.15;82.08
80335;BME280;69653;52.674;13.574;2023-08-21T04:32:36;101372.97;;;20.04;82.75
80335;BME280;69653;52.674;13.574;2023-08-21T04:35:02;101375.50;;;19.97;83.06
80335;BME280;69653;52.674;13.574;2023-08-21T04:37:27;101376.31;;;19.98;82.70
80335;BME280;69653;52.674;13.574;2023-08-21T04:39:53;101382.94;;;20.05;82.44
80335;BME280;69653;52.674;13.574;2023-08-21T04:42:19;101378.97;;;20.06;82.31
80335;BME280;69653;52.674;13.574;2023-08-21T04:44:44;101384.28;;;19.99;82.61
80335;BME280;69653;52.674;13.574;2023-08-21T04:47:25;101386.94;;;19.96;82.97
80335;BME280;69653;52.674;13.574;2023-08-21T04:49:51;101374.25;;;19.95;82.74
80335;BME280;69653;52.674;13.574;2023-08-21T04:52:17;101380.63;;;20.19;81.47
80335;BME280;69653;52.674;13.574;2023-08-21T04:54:42;101380.09;;;20.50;80.41
80335;BME280;69653;52.674;13.574;2023-08-21T04:57:08;101386.22;;;20.68;79.42
80335;BME280;69653;52.674;13.574;2023-08-21T04:59:34;101390.03;;;20.75;79.03
80335;BME280;69653;52.674;13.574;2023-08-21T05:01:59;101395.44;;;20.96;78.08
80335;BME280;69653;52.674;13.574;2023-08-21T05:04:25;101392.00;;;21.67;75.40
80335;BME280;69653;52.674;13.574;2023-08-21T05:06:50;101399.84;;;22.20;73.09
80335;BME280;69653;52.674;13.574;2023-08-21T05:09:15;101403.53;;;22.24;72.94
80335;BME280;69653;52.674;13.574;2023-08-21T05:11:40;101412.97;;;22.36;73.04
80335;BME280;69653;52.674;13.574;2023-08-21T05:14:06;101402.53;;;22.33;72.78
80335;BME280;69653;52.674;13.574;2023-08-21T05:16:31;101407.75;;;22.34;72.78
80335;BME280;69653;52.674;13.574;2023-08-21T05:18:56;101408.63;;;22.22;73.21
80335;BME280;69653;52.674;13.574;2023-08-21T05:21:22;101412.41;;;22.30;72.91
80335;BME280;69653;52.674;13.574;2023-08-21T05:23:47;101414.78;;;22.44;72.54
80335;BME280;69653;52.674;13.574;2023-08-21T05:26:12;101418.53;;;22.51;72.20
80335;BME280;69653;52.674;13.574;2023-08-21T05:28:38;101407.75;;;22.50;72.38
80335;BME280;69653;52.674;13.574;2023-08-21T05:31:03;101413.47;;;22.57;71.71
80335;BME280;69653;52.674;13.574;2023-08-21T05:33:28;101407.59;;;22.74;71.27
80335;BME280;69653;52.674;13.574;2023-08-21T05:35:56;101421.50;;;23.09;70.36
80335;BME280;69653;52.674;13.574;2023-08-21T05:38:21;101410.72;;;23.27;69.19
80335;BME280;69653;52.674;13.574;2023-08-21T05:40:48;101408.47;;;23.32;68.54
80335;BME280;69653;52.674;13.574;2023-08-21T05:43:13;101414.72;;;23.26;68.87
80335;BME280;69653;52.674;13.574;2023-08-21T05:45:38;101414.72;;;23.26;68.90
80335;BME280;69653;52.674;13.574;2023-08-21T05:48:04;101418.94;;;23.54;67.75
80335;BME280;69653;52.674;13.574;2023-08-21T05:50:29;101410.63;;;23.77;67.61
80335;BME280;69653;52.674;13.574;2023-08-21T05:52:55;101404.75;;;24.05;66.50
80335;BME280;69653;52.674;13.574;2023-08-21T05:55:22;101412.94;;;24.13;65.82
80335;BME280;69653;52.674;13.574;2023-08-21T05:57:47;101421.44;;;24.01;66.13
80335;BME280;69653;52.674;13.574;2023-08-21T06:00:13;101431.03;;;24.00;66.48
80335;BME280;69653;52.674;13.574;2023-08-21T06:02:39;101424.97;;;24.18;65.76
80335;BME280;69653;52.674;13.574;2023-08-21T06:05:04;101427.53;;;24.26;65.56
80335;BME280;69653;52.674;13.574;2023-08-21T06:07:30;101428.88;;;24.36;65.26
80335;BME280;69653;52.674;13.574;2023-08-21T06:09:57;101430.56;;;24.18;65.51
80335;BME280;69653;52.674;13.574;2023-08-21T06:12:22;101430.63;;;24.02;66.19
80335;BME280;69653;52.674;13.574;2023-08-21T06:14:47;101426.16;;;23.97;66.05
80335;BME280;69653;52.674;13.574;2023-08-21T06:17:13;101424.75;;;24.07;65.77
80335;BME280;69653;52.674;13.574;2023-08-21T06:19:38;101428.03;;;24.12;65.59
80335;BME280;69653;52.674;13.574;2023-08-21T06:22:04;101439.44;;;24.23;65.35
80335;BME280;69653;52.674;13.574;2023-08-21T06:24:30;101423.66;;;24.34;64.61
80335;BME280;69653;52.674;13.574;2023-08-21T06:26:55;101436.84;;;24.83;63.66
80335;BME280;69653;52.674;13.574;2023-08-21T06:29:20;101433.50;;;24.96;63.24
80335;BME280;69653;52.674;13.574;2023-08-21T06:31:46;101443.03;;;24.92;63.17
80335;BME280;69653;52.674;13.574;2023-08-21T06:34:12;101437.28;;;25.07;62.32
80335;BME280;69653;52.674;13.574;2023-08-21T06:36:37;101428.31;;;25.25;61.89
80335;BME280;69653;52.674;13.574;2023-08-21T06:39:02;101438.91;;;25.68;60.55
80335;BME280;69653;52.674;13.574;2023-08-21T06:41:28;101433.34;;;26.09;59.16
80335;BME280;69653;52.674;13.574;2023-08-21T06:43:54;101439.53;;;26.25;58.52
80335;BME280;69653;52.674;13.574;2023-08-21T06:46:19;101438.88;;;26.01;59.04
80335;BME280;69653;52.674;13.574;2023-08-21T06:48:44;101447.56;;;25.89;59.06
80335;BME280;69653;52.674;13.574;2023-08-21T06:51:11;101450.88;;;26.02;59.60
80335;BME280;69653;52.674;13.574;2023-08-21T06:53:36;101442.53;;;26.42;57.61
80335;BME280;69653;52.674;13.574;2023-08-21T06:56:02;101446.03;;;26.80;56.58
80335;BME280;69653;52.674;13.574;2023-08-21T06:58:27;101448.72;;;27.17;55.63
80335;BME280;69653;52.674;13.574;2023-08-21T07:00:56;101444.81;;;27.35;55.16
80335;BME280;69653;52.674;13.574;2023-08-21T07:03:22;101450.81;;;27.37;55.25
80335;BME280;69653;52.674;13.574;2023-08-21T07:05:54;101431.75;;;26.99;55.79
80335;BME280;69653;52.674;13.574;2023-08-21T07:08:21;101447.47;;;27.14;55.85
80335;BME280;69653;52.674;13.574;2023-08-21T07:10:46;101445.56;;;27.29;55.19
80335;BME280;69653;52.674;13.574;2023-08-21T07:13:12;101444.88;;;27.46;55.18
80335;BME280;69653;52.674;13.574;2023-08-21T07:15:37;101436.56;;;27.74;54.30
80335;BME280;69653;52.674;13.574;2023-08-21T07:18:02;101446.63;;;27.89;53.11
80335;BME280;69653;52.674;13.574;2023-08-21T07:20:28;101450.72;;;28.03;53.01
80335;BME280;69653;52.674;13.574;2023-08-21T07:22:53;101441.81;;;27.86;53.34
80335;BME280;69653;52.674;13.574;2023-08-21T07:25:19;101437.75;;;27.73;53.45
80335;BME280;69653;52.674;13.574;2023-08-21T07:27:44;101432.84;;;27.49;54.36
80335;BME280;69653;52.674;13.574;2023-08-21T07:30:10;101442.03;;;27.42;54.73
80335;BME280;69653;52.674;13.574;2023-08-21T07:32:36;101438.41;;;27.42;54.84
80335;BME280;69653;52.674;13.574;2023-08-21T07:35:01;101453.03;;;27.72;54.00
80335;BME280;69653;52.674;13.574;2023-08-21T07:37:26;101443.38;;;27.73;53.39
80335;BME280;69653;52.674;13.574;2023-08-21T07:39:52;101454.72;;;28.02;53.21
80335;BME280;69653;52.674;13.574;2023-08-21T07:42:18;101458.00;;;28.28;52.52
80335;BME280;69653;52.674;13.574;2023-08-21T07:44:44;101452.41;;;28.57;51.17
80335;BME280;69653;52.674;13.574;2023-08-21T07:47:09;101456.03;;;28.71;50.93
80335;BME280;69653;52.674;13.574;2023-08-21T07:49:35;101456.44;;;28.70;51.06
80335;BME280;69653;52.674;13.574;2023-08-21T07:52:02;101454.00;;;28.89;50.42
80335;BME280;69653;52.674;13.574;2023-08-21T07:54:28;101454.38;;;29.13;49.55
80335;BME280;69653;52.674;13.574;2023-08-21T07:56:53;101457.97;;;29.24;48.76
80335;BME280;69653;52.674;13.574;2023-08-21T07:59:18;101461.97;;;29.41;48.34
80335;BME280;69653;52.674;13.574;2023-08-21T08:01:45;101457.09;;;29.59;47.49
80335;BME280;69653;52.674;13.574;2023-08-21T08:04:10;101457.31;;;30.00;46.41
80335;BME280;69653;52.674;13.574;2023-08-21T08:06:36;101447.41;;;29.56;47.47
80335;BME280;69653;52.674;13.574;2023-08-21T08:09:01;101451.78;;;29.71;47.27
80335;BME280;69653;52.674;13.574;2023-08-21T08:11:28;101452.28;;;29.49;46.93
80335;BME280;69653;52.674;13.574;2023-08-21T08:13:55;101447.97;;;28.98;47.48
80335;BME280;69653;52.674;13.574;2023-08-21T08:16:21;101442.78;;;28.68;47.53
80335;BME280;69653;52.674;13.574;2023-08-21T08:18:46;101465.63;;;28.24;47.47
80335;BME280;69653;52.674;13.574;2023-08-21T08:21:11;101456.78;;;28.15;47.94
80335;BME280;69653;52.674;13.574;2023-08-21T08:23:37;101454.72;;;28.02;47.86
80335;BME280;69653;52.674;13.574;2023-08-21T08:26:02;101458.31;;;27.95;47.78
80335;BME280;69653;52.674;13.574;2023-08-21T08:28:27;101461.53;;;27.97;47.44
80335;BME280;69653;52.674;13.574;2023-08-21T08:30:53;101467.22;;;28.25;46.85
80335;BME280;69653;52.674;13.574;2023-08-21T08:33:18;101464.06;;;28.90;43.93
80335;BME280;69653;52.674;13.574;2023-08-21T08:35:43;101474.13;;;29.06;43.57
80335;BME280;69653;52.674;13.574;2023-08-21T08:38:09;101472.47;;;29.19;44.10
80335;BME280;69653;52.674;13.574;2023-08-21T08:40:38;101460.44;;;29.04;43.66
80335;BME280;69653;52.674;13.574;2023-08-21T08:43:07;101461.19;;;29.19;42.95
80335;BME280;69653;52.674;13.574;2023-08-21T08:45:32;101458.66;;;29.67;41.37
80335;BME280;69653;52.674;13.574;2023-08-21T08:47:59;101468.59;;;30.03;40.36
80335;BME280;69653;52.674;13.574;2023-08-21T08:50:31;101472.41;;;30.30;39.79
80335;BME280;69653;52.674;13.574;2023-08-21T08:52:58;101459.13;;;30.83;39.38
80335;BME280;69653;52.674;13.574;2023-08-21T08:55:24;101462.63;;;30.94;38.82
80335;BME280;69653;52.674;13.574;2023-08-21T08:57:51;101474.09;;;30.76;38.67
80335;BME280;69653;52.674;13.574;2023-08-21T09:00:17;101462.25;;;30.47;38.14
80335;BME280;69653;52.674;13.574;2023-08-21T09:02:42;101468.16;;;30.05;38.16
80335;BME280;69653;52.674;13.574;2023-08-21T09:05:08;101461.06;;;29.68;37.34
80335;BME280;69653;52.674;13.574;2023-08-21T09:07:34;101461.97;;;29.37;38.79
80335;BME280;69653;52.674;13.574;2023-08-21T09:10:00;101459.59;;;29.28;38.64
80335;BME280;69653;52.674;13.574;2023-08-21T09:12:26;101460.81;;;29.20;40.07
80335;BME280;69653;52.674;13.574;2023-08-21T09:14:51;101447.53;;;29.14;39.69
80335;BME280;69653;52.674;13.574;2023-08-21T09:17:16;101459.19;;;29.16;39.58
80335;BME280;69653;52.674;13.574;2023-08-21T09:19:43;101457.97;;;29.31;39.87
80335;BME280;69653;52.674;13.574;2023-08-21T09:22:16;101458.00;;;29.13;39.84
80335;BME280;69653;52.674;13.574;2023-08-21T09:25:03;101451.16;;;29.04;39.11
80335;BME280;69653;52.674;13.574;2023-08-21T09:27:34;101448.00;;;28.91;40.00
80335;BME280;69653;52.674;13.574;2023-08-21T09:30:03;101448.38;;;28.97;39.15
80335;BME280;69653;52.674;13.574;2023-08-21T09:32:29;101442.72;;;28.97;39.30
80335;BME280;69653;52.674;13.574;2023-08-21T09:34:54;101442.31;;;29.09;37.98
80335;BME280;69653;52.674;13.574;2023-08-21T09:37:19;101447.91;;;29.33;38.20
80335;BME280;69653;52.674;13.574;2023-08-21T09:39:45;101434.16;;;29.50;38.37
80335;BME280;69653;52.674;13.574;2023-08-21T09:42:11;101450.22;;;29.63;37.04
80335;BME280;69653;52.674;13.574;2023-08-21T09:44:40;101451.22;;;30.05;35.59
80335;BME280;69653;52.674;13.574;2023-08-21T09:47:09;101438.41;;;29.93;36.52
80335;BME280;69653;52.674;13.574;2023-08-21T09:49:36;101437.47;;;30.14;35.68
80335;BME280;69653;52.674;13.574;2023-08-21T09:52:07;101447.22;;;30.02;35.64
80335;BME280;69653;52.674;13.574;2023-08-21T09:54:35;101444.53;;;29.70;35.82
80335;BME280;69653;52.674;13.574;2023-08-21T09:57:02;101436.59;;;29.48;37.08
80335;BME280;69653;52.674;13.574;2023-08-21T09:59:29;101436.88;;;29.71;36.40
80335;BME280;69653;52.674;13.574;2023-08-21T10:01:56;101436.88;;;30.40;35.48
80335;BME280;69653;52.674;13.574;2023-08-21T10:04:22;101439.63;;;30.54;34.56
80335;BME280;69653;52.674;13.574;2023-08-21T10:06:48;101420.69;;;29.93;36.13
80335;BME280;69653;52.674;13.574;2023-08-21T10:09:15;101429.41;;;30.16;35.94
80335;BME280;69653;52.674;13.574;2023-08-21T10:11:42;101423.06;;;30.56;34.87
80335;BME280;69653;52.674;13.574;2023-08-21T10:14:07;101431.44;;;31.11;33.01
80335;BME280;69653;52.674;13.574;2023-08-21T10:16:33;101426.78;;;31.28;32.71
80335;BME280;69653;52.674;13.574;2023-08-21T10:19:03;101427.88;;;31.71;32.17
80335;BME280;69653;52.674;13.574;2023-08-21T10:21:34;101441.28;;;32.25;31.75
80335;BME280;69653;52.674;13.574;2023-08-21T10:24:00;101423.56;;;31.30;33.52
80335;BME280;69653;52.674;13.574;2023-08-21T10:26:25;101425.22;;;30.83;34.40
80335;BME280;69653;52.674;13.574;2023-08-21T10:28:56;101435.19;;;30.53;34.19
80335;BME280;69653;52.674;13.574;2023-08-21T10:31:29;101440.81;;;30.53;33.71
80335;BME280;69653;52.674;13.574;2023-08-21T10:33:55;101428.16;;;30.72;33.98
80335;BME280;69653;52.674;13.574;2023-08-21T10:36:37;101429.84;;;30.66;33.71
80335;BME280;69653;52.674;13.574;2023-08-21T10:39:04;101434.06;;;30.44;34.54
80335;BME280;69653;52.674;13.574;2023-08-21T10:41:29;101433.63;;;30.45;33.88
80335;BME280;69653;52.674;13.574;2023-08-21T10:43:55;101428.19;;;30.68;33.39
80335;BME280;69653;52.674;13.574;2023-08-21T10:46:20;101426.22;;;31.44;31.97
80335;BME280;69653;52.674;13.574;2023-08-21T10:48:46;101442.09;;;31.95;31.49
80335;BME280;69653;52.674;13.574;2023-08-21T10:51:17;101433.31;;;31.59;32.52
80335;BME280;69653;52.674;13.574;2023-08-21T10:53:42;101433.13;;;31.02;33.49
80335;BME280;69653;52.674;13.574;2023-08-21T10:56:08;101436.94;;;30.85;33.40
80335;BME280;69653;52.674;13.574;2023-08-21T10:58:43;101446.53;;;30.91;33.29
80335;BME280;69653;52.674;13.574;2023-08-21T11:01:09;101432.63;;;30.69;33.08
80335;BME280;69653;52.674;13.574;2023-08-21T11:03:38;101439.81;;;30.26;33.26
80335;BME280;69653;52.674;13.574;2023-08-21T11:06:08;101448.03;;;30.03;34.10
80335;BME280;69653;52.674;13.574;2023-08-21T11:08:34;101432.78;;;29.82;34.75
80335;BME280;69653;52.674;13.574;2023-08-21T11:11:01;101440.47;;;29.78;34.87
80335;BME280;69653;52.674;13.574;2023-08-21T11:13:27;101434.97;;;29.50;36.25
80335;BME280;69653;52.674;13.574;2023-08-21T11:16:00;101433.03;;;29.33;36.51
80335;BME280;69653;52.674;13.574;2023-08-21T11:18:44;101441.03;;;29.42;36.65
80335;BME280;69653;52.674;13.574;2023-08-21T11:21:11;101441.44;;;29.44;36.48
80335;BME280;69653;52.674;13.574;2023-08-21T11:23:39;101450.31;;;29.38;36.46
80335;BME280;69653;52.674;13.574;2023-08-21T11:26:09;101429.00;;;29.30;36.40
80335;BME280;69653;52.674;13.574;2023-08-21T11:28:35;101441.09;;;29.17;36.24
80335;BME280;69653;52.674;13.574;2023-08-21T11:31:00;101425.81;;;29.04;35.71
80335;BME280;69653;52.674;13.574;2023-08-21T11:33:27;101439.53;;;28.95;36.71
80335;BME280;69653;52.674;13.574;2023-08-21T11:35:53;101435.53;;;28.92;35.88
80335;BME280;69653;52.674;13.574;2023-08-21T11:38:20;101447.59;;;28.85;35.82
80335;BME280;69653;52.674;13.574;2023-08-21T11:40:53;101440.75;;;28.90;35.97
80335;BME280;69653;52.674;13.574;2023-08-21T11:43:19;101431.78;;;29.41;34.91
80335;BME280;69653;52.674;13.574;2023-08-21T11:45:47;101433.63;;;29.87;34.51
80335;BME280;69653;52.674;13.574;2023-08-21T11:48:13;101431.47;;;30.05;33.57
80335;BME280;69653;52.674;13.574;2023-08-21T11:50:39;101429.00;;;30.17;34.00
80335;BME280;69653;52.674;13.574;2023-08-21T11:53:04;101418.25;;;29.98;34.67
80335;BME280;69653;52.674;13.574;2023-08-21T11:55:31;101428.38;;;29.81;35.28
80335;BME280;69653;52.674;13.574;2023-08-21T11:57:56;101424.41;;;29.72;35.21
80335;BME280;69653;52.674;13.574;2023-08-21T12:00:27;101434.19;;;29.46;35.80
80335;BME280;69653;52.674;13.574;2023-08-21T12:02:54;101418.16;;;29.29;36.17
80335;BME280;69653;52.674;13.574;2023-08-21T12:05:21;101433.84;;;29.16;36.48
80335;BME280;69653;52.674;13.574;2023-08-21T12:07:47;101435.88;;;29.05;37.16
80335;BME280;69653;52.674;13.574;2023-08-21T12:10:12;101428.69;;;28.82;38.11
80335;BME280;69653;52.674;13.574;2023-08-21T12:12:37;101440.75;;;28.76;37.78
80335;BME280;69653;52.674;13.574;2023-08-21T12:15:03;101424.25;;;28.81;37.72
80335;BME280;69653;52.674;13.574;2023-08-21T12:17:28;101423.88;;;28.83;37.51
80335;BME280;69653;52.674;13.574;2023-08-21T12:19:53;101433.47;;;29.00;37.69
80335;BME280;69653;52.674;13.574;2023-08-21T12:22:19;101425.81;;;29.07;37.42
80335;BME280;69653;52.674;13.574;2023-08-21T12:24:44;101422.56;;;29.19;34.74
80335;BME280;69653;52.674;13.574;2023-08-21T12:27:10;101421.69;;;29.54;35.40
80335;BME280;69653;52.674;13.574;2023-08-21T12:29:35;101416.41;;;29.60;34.97
80335;BME280;69653;52.674;13.574;2023-08-21T12:32:01;101417.22;;;29.57;34.58
80335;BME280;69653;52.674;13.574;2023-08-21T12:34:27;101415.28;;;29.47;35.02